sensor_id;sensor_type;location;lat;lon;timestamp;temperature;humidity
25918;DHT22;13899;51.174;4.456;2024-01-15T00:00:49;3.70;99.90
25918;DHT22;13899;51.174;4.456;2024-01-15T00:03:16;3.90;99.90
25918;DHT22;13899;51.174;4.456;2024-01-15T00:05:42;4.00;99.90
25918;DHT22;13899;51.174;4.456;2024-01-15T00:08:07;4.20;99.90
25918;DHT22;13899;51.174;4.456;2024-01-15T00:10:33;4.50;99.90
25918;DHT22;13899;51.174;4.456;2024-01-15T00:12:59;4.30;99.90
25918;DHT22;13899;51.174;4.456;2024-01-15T00:15:25;4.50;99.90
25918;DHT22;13899;51.174;4.456;2024-01-15T00:17:50;4.10;99.90
25918;DHT22;13899;51.174;4.456;2024-01-15T00:20:17;3.90;99.90
25918;DHT22;13899;51.174;4.456;2024-01-15T00:22:43;4.10;99.90
25918;DHT22;13899;51.174;4.456;2024-01-15T00:25:09;3.80;99.90
25918;DHT22;13899;51.174;4.456;2024-01-15T00:27:35;3.90;99.90
25918;DHT22;13899;51.174;4.456;2024-01-15T00:30:04;4.00;99.90
25918;DHT22;13899;51.174;4.456;2024-01-15T00:32:30;3.90;99.90
25918;DHT22;13899;51.174;4.456;2024-01-15T00:34:56;3.80;99.90
25918;DHT22;13899;51.174;4.456;2024-01-15T00:37:22;3.60;99.90
25918;DHT22;13899;51.174;4.456;2024-01-15T00:39:47;3.50;99.90
25918;DHT22;13899;51.174;4.456;2024-01-15T00:42:13;3.70;99.90
25918;DHT22;13899;51.174;4.456;2024-01-15T00:44:39;3.70;99.90
25918;DHT22;13899;51.174;4.456;2024-01-15T00:47:05;3.50;99.90
25918;DHT22;13899;51.174;4.456;2024-01-15T00:49:30;3.50;99.90
25918;DHT22;13899;51.174;4.456;2024-01-15T00:51:56;3.50;99.90
25918;DHT22;13899;51.174;4.456;2024-01-15T00:54:22;3.50;99.90
25918;DHT22;13899;51.174;4.456;2024-01-15T00:56:47;3.60;99.90
25918;DHT22;13899;51.174;4.456;2024-01-15T00:59:13;3.50;99.90
25918;DHT22;13899;51.174;4.456;2024-01-15T01:01:41;3.50;99.90
25918;DHT22;13899;51.174;4.456;2024-01-15T01:04:09;3.80;99.90
25918;DHT22;13899;51.174;4.456;2024-01-15T01:06:35;3.90;99.90
25918;DHT22;13899;51.174;4.456;2024-01-15T01:09:00;3.80;99.90
25918;DHT22;13899;51.174;4.456;2024-01-15T01:11:26;3.80;99.90
25918;DHT22;13899;51.174;4.456;2024-01-15T01:13:51;3.80;99.90
25918;DHT22;13899;51.174;4.456;2024-01-15T01:16:17;3.50;99.90
25918;DHT22;13899;51.174;4.456;2024-01-15T01:18:42;3.60;99.90
25918;DHT22;13899;51.174;4.456;2024-01-15T01:21:08;4.00;99.90
25918;DHT22;13899;51.174;4.456;2024-01-15T01:23:34;4.20;99.90
25918;DHT22;13899;51.174;4.456;2024-01-15T01:25:59;4.20;99.90
25918;DHT22;13899;51.174;4.456;2024-01-15T01:28:25;4.10;99.90
25918;DHT22;13899;51.174;4.456;2024-01-15T01:30:50;4.00;99.90
25918;DHT22;13899;51.174;4.456;2024-01-15T01:33:16;3.70;99.90
25918;DHT22;13899;51.174;4.456;2024-01-15T01:35:42;3.60;99.90
25918;DHT22;13899;51.174;4.456;2024-01-15T01:38:08;3.50;99.90
25918;DHT22;13899;51.174;4.456;2024-01-15T01:40:34;3.50;99.90
25918;DHT22;13899;51.174;4.456;2024-01-15T01:43:00;3.40;99.90
25918;DHT22;13899;51.174;4.456;2024-01-15T01:45:25;3.20;99.90
25918;DHT22;13899;51.174;4.456;2024-01-15T01:47:51;3.10;99.90
25918;DHT22;13899;51.174;4.456;2024-01-15T01:50:17;3.00;99.90
25918;DHT22;13899;51.174;4.456;2024-01-15T01:52:43;3.00;99.90
25918;DHT22;13899;51.174;4.456;2024-01-15T01:55:09;2.80;99.90
25918;DHT22;13899;51.174;4.456;2024-01-15T01:57:36;2.70;99.90
25918;DHT22;13899;51.174;4.456;2024-01-15T02:00:02;2.90;99.90
25918;DHT22;13899;51.174;4.456;2024-01-15T02:02:30;2.80;99.90
25918;DHT22;13899;51.174;4.456;2024-01-15T02:04:56;2.80;99.90
25918;DHT22;13899;51.174;4.456;2024-01-15T02:07:22;3.00;99.90
25918;DHT22;13899;51.174;4.456;2024-01-15T02:09:49;2.90;99.90
25918;DHT22;13899;51.174;4.456;2024-01-15T02:12:15;3.00;99.90
25918;DHT22;13899;51.174;4.456;2024-01-15T02:14:41;3.00;99.90
25918;DHT22;13899;51.174;4.456;2024-01-15T02:17:07;3.50;99.90
25918;DHT22;13899;51.174;4.456;2024-01-15T02:19:32;3.50;99.90
25918;DHT22;13899;51.174;4.456;2024-01-15T02:21:58;3.40;99.90
25918;DHT22;13899;51.174;4.456;2024-01-15T02:24:23;3.30;99.90
25918;DHT22;13899;51.174;4.456;2024-01-15T02:26:49;3.10;99.90
25918;DHT22;13899;51.174;4.456;2024-01-15T02:29:15;3.10;99.90
25918;DHT22;13899;51.174;4.456;2024-01-15T02:31:41;3.10;99.90
25918;DHT22;13899;51.174;4.456;2024-01-15T02:34:06;3.00;99.90
25918;DHT22;13899;51.174;4.456;2024-01-15T02:36:32;3.10;99.90
25918;DHT22;13899;51.174;4.456;2024-01-15T02:38:58;2.90;99.90
25918;DHT22;13899;51.174;4.456;2024-01-15T02:41:23;3.10;99.90
25918;DHT22;13899;51.174;4.456;2024-01-15T02:43:49;3.20;99.90
25918;DHT22;13899;51.174;4.456;2024-01-15T02:46:14;3.10;99.90
25918;DHT22;13899;51.174;4.456;2024-01-15T02:48:41;3.10;99.90
25918;DHT22;13899;51.174;4.456;2024-01-15T02:51:07;3.10;99.90
25918;DHT22;13899;51.174;4.456;2024-01-15T02:53:32;3.00;99.90
25918;DHT22;13899;51.174;4.456;2024-01-15T02:55:58;3.10;99.90
25918;DHT22;13899;51.174;4.456;2024-01-15T02:58:24;3.20;99.90
25918;DHT22;13899;51.174;4.456;2024-01-15T03:00:49;3.10;99.90
25918;DHT22;13899;51.174;4.456;2024-01-15T03:03:15;3.30;99.90
25918;DHT22;13899;51.174;4.456;2024-01-15T03:05:40;3.20;99.90
25918;DHT22;13899;51.174;4.456;2024-01-15T03:08:06;3.20;99.90
25918;DHT22;13899;51.174;4.456;2024-01-15T03:10:32;3.20;99.90
25918;DHT22;13899;51.174;4.456;2024-01-15T03:12:57;3.10;99.90
25918;DHT22;13899;51.174;4.456;2024-01-15T03:15:23;3.60;99.90
25918;DHT22;13899;51.174;4.456;2024-01-15T03:17:48;3.20;99.90
25918;DHT22;13899;51.174;4.456;2024-01-15T03:20:14;3.30;99.90
25918;DHT22;13899;51.174;4.456;2024-01-15T03:22:40;3.20;99.90
25918;DHT22;13899;51.174;4.456;2024-01-15T03:25:06;3.20;99.90
25918;DHT22;13899;51.174;4.456;2024-01-15T03:27:32;3.20;99.90
25918;DHT22;13899;51.174;4.456;2024-01-15T03:29:57;3.40;99.90
25918;DHT22;13899;51.174;4.456;2024-01-15T03:32:23;3.40;99.90
25918;DHT22;13899;51.174;4.456;2024-01-15T03:34:49;3.20;99.90
25918;DHT22;13899;51.174;4.456;2024-01-15T03:37:14;3.20;99.90
25918;DHT22;13899;51.174;4.456;2024-01-15T03:39:40;3.10;99.90
25918;DHT22;13899;51.174;4.456;2024-01-15T03:42:06;3.50;99.90
25918;DHT22;13899;51.174;4.456;2024-01-15T03:44:32;3.30;99.90
25918;DHT22;13899;51.174;4.456;2024-01-15T03:46:57;3.20;99.90
25918;DHT22;13899;51.174;4.456;2024-01-15T03:49:23;3.10;99.90
25918;DHT22;13899;51.174;4.456;2024-01-15T03:51:49;3.00;99.90
25918;DHT22;13899;51.174;4.456;2024-01-15T03:54:14;3.10;99.90
25918;DHT22;13899;51.174;4.456;2024-01-15T03:56:40;3.20;99.90
25918;DHT22;13899;51.174;4.456;2024-01-15T03:59:06;3.40;99.90
25918;DHT22;13899;51.174;4.456;2024-01-15T04:01:31;3.10;99.90
25918;DHT22;13899;51.174;4.456;2024-01-15T04:03:57;3.00;99.90
25918;DHT22;13899;51.174;4.456;2024-01-15T04:06:22;3.00;99.90
25918;DHT22;13899;51.174;4.456;2024-01-15T04:08:48;3.00;99.90
25918;DHT22;13899;51.174;4.456;2024-01-15T04:11:13;2.90;99.90
25918;DHT22;13899;51.174;4.456;2024-01-15T04:13:39;2.80;99.90
25918;DHT22;13899;51.174;4.456;2024-01-15T04:16:05;2.70;99.90
25918;DHT22;13899;51.174;4.456;2024-01-15T04:18:30;2.90;99.90
25918;DHT22;13899;51.174;4.456;2024-01-15T04:20:56;3.00;99.90
25918;DHT22;13899;51.174;4.456;2024-01-15T04:23:22;3.10;99.90
25918;DHT22;13899;51.174;4.456;2024-01-15T04:25:47;3.10;99.90
25918;DHT22;13899;51.174;4.456;2024-01-15T04:28:13;2.90;99.90
25918;DHT22;13899;51.174;4.456;2024-01-15T04:30:38;3.00;99.90
25918;DHT22;13899;51.174;4.456;2024-01-15T04:33:04;2.80;99.90
25918;DHT22;13899;51.174;4.456;2024-01-15T04:35:33;2.70;99.90
25918;DHT22;13899;51.174;4.456;2024-01-15T04:37:59;3.00;99.90
25918;DHT22;13899;51.174;4.456;2024-01-15T04:40:25;2.80;99.90
25918;DHT22;13899;51.174;4.456;2024-01-15T04:42:53;2.70;99.90
25918;DHT22;13899;51.174;4.456;2024-01-15T04:45:19;2.70;99.90
25918;DHT22;13899;51.174;4.456;2024-01-15T04:47:48;2.80;99.90
25918;DHT22;13899;51.174;4.456;2024-01-15T04:50:14;2.70;99.90
25918;DHT22;13899;51.174;4.456;2024-01-15T04:52:40;2.90;99.90
25918;DHT22;13899;51.174;4.456;2024-01-15T04:55:05;2.90;99.90
25918;DHT22;13899;51.174;4.456;2024-01-15T04:57:31;2.70;99.90
25918;DHT22;13899;51.174;4.456;2024-01-15T04:59:57;2.70;99.90
25918;DHT22;13899;51.174;4.456;2024-01-15T05:02:23;2.70;99.90
25918;DHT22;13899;51.174;4.456;2024-01-15T05:04:48;2.70;99.90
25918;DHT22;13899;51.174;4.456;2024-01-15T05:07:14;2.70;99.90
25918;DHT22;13899;51.174;4.456;2024-01-15T05:09:40;3.00;99.90
25918;DHT22;13899;51.174;4.456;2024-01-15T05:12:05;3.10;99.90
25918;DHT22;13899;51.174;4.456;2024-01-15T05:14:31;3.00;99.90
25918;DHT22;13899;51.174;4.456;2024-01-15T05:16:57;2.80;99.90
25918;DHT22;13899;51.174;4.456;2024-01-15T05:19:22;2.70;99.90
25918;DHT22;13899;51.174;4.456;2024-01-15T05:21:48;2.80;99.90
25918;DHT22;13899;51.174;4.456;2024-01-15T05:24:13;2.70;99.90
25918;DHT22;13899;51.174;4.456;2024-01-15T05:26:39;2.80;99.90
25918;DHT22;13899;51.174;4.456;2024-01-15T05:29:04;2.80;99.90
25918;DHT22;13899;51.174;4.456;2024-01-15T05:31:30;2.90;99.90
25918;DHT22;13899;51.174;4.456;2024-01-15T05:33:56;2.70;99.90
25918;DHT22;13899;51.174;4.456;2024-01-15T05:36:21;2.70;99.90
25918;DHT22;13899;51.174;4.456;2024-01-15T05:38:47;2.80;99.90
25918;DHT22;13899;51.174;4.456;2024-01-15T05:41:13;2.70;99.90
25918;DHT22;13899;51.174;4.456;2024-01-15T05:43:39;2.70;99.90
25918;DHT22;13899;51.174;4.456;2024-01-15T05:46:05;2.60;99.90
25918;DHT22;13899;51.174;4.456;2024-01-15T05:48:30;2.60;99.90
25918;DHT22;13899;51.174;4.456;2024-01-15T05:50:56;2.50;99.90
25918;DHT22;13899;51.174;4.456;2024-01-15T05:53:21;2.60;99.90
25918;DHT22;13899;51.174;4.456;2024-01-15T05:55:47;2.50;99.90
25918;DHT22;13899;51.174;4.456;2024-01-15T05:58:13;2.60;99.90
25918;DHT22;13899;51.174;4.456;2024-01-15T06:00:38;2.50;99.90
25918;DHT22;13899;51.174;4.456;2024-01-15T06:03:04;2.70;99.90
25918;DHT22;13899;51.174;4.456;2024-01-15T06:05:30;2.60;99.90
25918;DHT22;13899;51.174;4.456;2024-01-15T06:07:55;2.50;99.90
25918;DHT22;13899;51.174;4.456;2024-01-15T06:10:21;2.50;99.90
25918;DHT22;13899;51.174;4.456;2024-01-15T06:12:46;2.50;99.90
25918;DHT22;13899;51.174;4.456;2024-01-15T06:15:12;2.50;99.90
25918;DHT22;13899;51.174;4.456;2024-01-15T06:17:38;2.40;99.90
25918;DHT22;13899;51.174;4.456;2024-01-15T06:20:04;2.60;99.90
25918;DHT22;13899;51.174;4.456;2024-01-15T06:22:30;2.60;99.90
25918;DHT22;13899;51.174;4.456;2024-01-15T06:24:56;2.80;99.90
25918;DHT22;13899;51.174;4.456;2024-01-15T06:27:22;2.90;99.90
25918;DHT22;13899;51.174;4.456;2024-01-15T06:29:47;2.90;99.90
25918;DHT22;13899;51.174;4.456;2024-01-15T06:32:13;2.90;99.90
25918;DHT22;13899;51.174;4.456;2024-01-15T06:34:39;3.00;99.90
25918;DHT22;13899;51.174;4.456;2024-01-15T06:37:05;2.90;99.90
25918;DHT22;13899;51.174;4.456;2024-01-15T06:39:30;2.90;99.90
25918;DHT22;13899;51.174;4.456;2024-01-15T06:41:56;2.90;99.90
25918;DHT22;13899;51.174;4.456;2024-01-15T06:44:22;3.20;99.90
25918;DHT22;13899;51.174;4.456;2024-01-15T06:46:48;3.40;99.90
25918;DHT22;13899;51.174;4.456;2024-01-15T06:49:13;3.30;99.90
25918;DHT22;13899;51.174;4.456;2024-01-15T06:51:39;3.30;99.90
25918;DHT22;13899;51.174;4.456;2024-01-15T06:54:05;3.40;99.90
25918;DHT22;13899;51.174;4.456;2024-01-15T06:56:32;3.70;99.90
25918;DHT22;13899;51.174;4.456;2024-01-15T06:58:58;3.70;99.90
25918;DHT22;13899;51.174;4.456;2024-01-15T07:01:23;3.60;99.90
25918;DHT22;13899;51.174;4.456;2024-01-15T07:03:49;3.40;99.90
25918;DHT22;13899;51.174;4.456;2024-01-15T07:06:14;3.70;99.90
25918;DHT22;13899;51.174;4.456;2024-01-15T07:08:40;4.10;99.90
25918;DHT22;13899;51.174;4.456;2024-01-15T07:11:07;3.70;99.90
25918;DHT22;13899;51.174;4.456;2024-01-15T07:13:32;4.00;99.90
25918;DHT22;13899;51.174;4.456;2024-01-15T07:15:58;4.00;99.90
25918;DHT22;13899;51.174;4.456;2024-01-15T07:18:24;3.70;99.90
25918;DHT22;13899;51.174;4.456;2024-01-15T07:20:50;3.50;99.90
25918;DHT22;13899;51.174;4.456;2024-01-15T07:23:15;3.70;99.90
25918;DHT22;13899;51.174;4.456;2024-01-15T07:25:41;4.00;99.90
25918;DHT22;13899;51.174;4.456;2024-01-15T07:28:07;4.30;99.90
25918;DHT22;13899;51.174;4.456;2024-01-15T07:30:33;4.00;99.90
25918;DHT22;13899;51.174;4.456;2024-01-15T07:32:58;4.30;99.90
25918;DHT22;13899;51.174;4.456;2024-01-15T07:35:24;4.10;99.90
25918;DHT22;13899;51.174;4.456;2024-01-15T07:37:50;4.10;99.90
25918;DHT22;13899;51.174;4.456;2024-01-15T07:40:15;4.20;99.90
25918;DHT22;13899;51.174;4.456;2024-01-15T07:42:41;4.20;99.90
25918;DHT22;13899;51.174;4.456;2024-01-15T07:45:09;4.60;99.90
25918;DHT22;13899;51.174;4.456;2024-01-15T07:47:35;4.30;99.90
25918;DHT22;13899;51.174;4.456;2024-01-15T07:50:01;3.70;99.90
25918;DHT22;13899;51.174;4.456;2024-01-15T07:52:26;3.90;99.90
25918;DHT22;13899;51.174;4.456;2024-01-15T07:54:52;3.70;99.90
25918;DHT22;13899;51.174;4.456;2024-01-15T07:57:17;3.80;99.90
25918;DHT22;13899;51.174;4.456;2024-01-15T07:59:43;3.80;99.90
25918;DHT22;13899;51.174;4.456;2024-01-15T08:02:09;3.60;99.90
25918;DHT22;13899;51.174;4.456;2024-01-15T08:04:37;3.40;99.90
25918;DHT22;13899;51.174;4.456;2024-01-15T08:07:02;3.10;99.90
25918;DHT22;13899;51.174;4.456;2024-01-15T08:09:28;3.20;99.90
25918;DHT22;13899;51.174;4.456;2024-01-15T08:11:55;3.40;99.90
25918;DHT22;13899;51.174;4.456;2024-01-15T08:14:20;3.20;99.90
25918;DHT22;13899;51.174;4.456;2024-01-15T08:16:46;3.30;99.90
25918;DHT22;13899;51.174;4.456;2024-01-15T08:19:11;3.40;99.90
25918;DHT22;13899;51.174;4.456;2024-01-15T08:21:37;3.40;99.90
25918;DHT22;13899;51.174;4.456;2024-01-15T08:24:03;3.40;99.90
25918;DHT22;13899;51.174;4.456;2024-01-15T08:26:29;3.40;99.90
25918;DHT22;13899;51.174;4.456;2024-01-15T08:28:55;3.50;99.90
25918;DHT22;13899;51.174;4.456;2024-01-15T08:31:21;3.60;99.90
25918;DHT22;13899;51.174;4.456;2024-01-15T08:33:46;3.60;99.90
25918;DHT22;13899;51.174;4.456;2024-01-15T08:36:12;3.60;99.90
25918;DHT22;13899;51.174;4.456;2024-01-15T08:38:38;3.70;99.90
25918;DHT22;13899;51.174;4.456;2024-01-15T08:41:04;3.60;99.90
25918;DHT22;13899;51.174;4.456;2024-01-15T08:43:30;3.50;99.90
25918;DHT22;13899;51.174;4.456;2024-01-15T08:45:58;3.50;99.90
25918;DHT22;13899;51.174;4.456;2024-01-15T08:48:24;3.50;99.90
25918;DHT22;13899;51.174;4.456;2024-01-15T08:50:53;3.50;99.90
25918;DHT22;13899;51.174;4.456;2024-01-15T08:53:18;3.40;99.90
25918;DHT22;13899;51.174;4.456;2024-01-15T08:55:44;3.50;99.90
25918;DHT22;13899;51.174;4.456;2024-01-15T08:58:10;3.80;99.90
25918;DHT22;13899;51.174;4.456;2024-01-15T09:00:35;4.00;99.90
25918;DHT22;13899;51.174;4.456;2024-01-15T09:03:02;4.00;99.90
25918;DHT22;13899;51.174;4.456;2024-01-15T09:05:28;4.00;99.90
25918;DHT22;13899;51.174;4.456;2024-01-15T09:07:54;4.00;99.90
25918;DHT22;13899;51.174;4.456;2024-01-15T09:10:19;3.90;99.90
25918;DHT22;13899;51.174;4.456;2024-01-15T09:12:46;3.70;99.90
25918;DHT22;13899;51.174;4.456;2024-01-15T09:15:11;3.70;99.90
25918;DHT22;13899;51.174;4.456;2024-01-15T09:17:37;3.40;99.90
25918;DHT22;13899;51.174;4.456;2024-01-15T09:20:03;3.30;99.90
25918;DHT22;13899;51.174;4.456;2024-01-15T09:22:32;3.50;99.90
25918;DHT22;13899;51.174;4.456;2024-01-15T09:24:58;3.70;99.90
25918;DHT22;13899;51.174;4.456;2024-01-15T09:27:24;3.90;99.90
25918;DHT22;13899;51.174;4.456;2024-01-15T09:29:54;4.00;99.90
25918;DHT22;13899;51.174;4.456;2024-01-15T09:32:20;4.30;99.90
25918;DHT22;13899;51.174;4.456;2024-01-15T09:34:46;4.40;99.90
25918;DHT22;13899;51.174;4.456;2024-01-15T09:37:13;4.60;99.90
25918;DHT22;13899;51.174;4.456;2024-01-15T09:39:39;4.60;99.90
25918;DHT22;13899;51.174;4.456;2024-01-15T09:42:05;4.50;99.90
25918;DHT22;13899;51.174;4.456;2024-01-15T09:44:31;4.40;99.90
25918;DHT22;13899;51.174;4.456;2024-01-15T09:46:57;4.70;99.90
25918;DHT22;13899;51.174;4.456;2024-01-15T09:49:24;5.10;99.90
25918;DHT22;13899;51.174;4.456;2024-01-15T09:51:50;6.20;99.90
25918;DHT22;13899;51.174;4.456;2024-01-15T09:54:16;6.50;99.90
25918;DHT22;13899;51.174;4.456;2024-01-15T09:56:45;7.10;99.90
25918;DHT22;13899;51.174;4.456;2024-01-15T09:59:14;7.30;99.90
25918;DHT22;13899;51.174;4.456;2024-01-15T10:01:40;7.80;99.90
25918;DHT22;13899;51.174;4.456;2024-01-15T10:04:06;7.80;99.90
25918;DHT22;13899;51.174;4.456;2024-01-15T10:06:32;7.90;99.90
25918;DHT22;13899;51.174;4.456;2024-01-15T10:08:59;8.00;99.90
25918;DHT22;13899;51.174;4.456;2024-01-15T10:11:25;8.30;99.90
25918;DHT22;13899;51.174;4.456;2024-01-15T10:13:50;9.60;99.90
25918;DHT22;13899;51.174;4.456;2024-01-15T10:16:19;9.40;99.90
25918;DHT22;13899;51.174;4.456;2024-01-15T10:18:44;8.90;99.90
25918;DHT22;13899;51.174;4.456;2024-01-15T10:21:10;9.40;99.90
25918;DHT22;13899;51.174;4.456;2024-01-15T10:23:35;9.00;99.90
25918;DHT22;13899;51.174;4.456;2024-01-15T10:26:02;9.30;99.90
25918;DHT22;13899;51.174;4.456;2024-01-15T10:28:28;8.40;99.90
25918;DHT22;13899;51.174;4.456;2024-01-15T10:30:57;8.50;99.90
25918;DHT22;13899;51.174;4.456;2024-01-15T10:33:24;7.50;99.90
25918;DHT22;13899;51.174;4.456;2024-01-15T10:35:57;6.70;99.90
25918;DHT22;13899;51.174;4.456;2024-01-15T10:38:24;6.10;99.90
25918;DHT22;13899;51.174;4.456;2024-01-15T10:40:54;6.00;99.90
25918;DHT22;13899;51.174;4.456;2024-01-15T10:43:21;5.90;99.90
25918;DHT22;13899;51.174;4.456;2024-01-15T10:45:48;5.60;99.90
25918;DHT22;13899;51.174;4.456;2024-01-15T10:48:15;5.40;99.90
25918;DHT22;13899;51.174;4.456;2024-01-15T10:50:41;5.30;99.90
25918;DHT22;13899;51.174;4.456;2024-01-15T10:53:09;5.30;99.90
25918;DHT22;13899;51.174;4.456;2024-01-15T10:55:38;5.10;99.90
25918;DHT22;13899;51.174;4.456;2024-01-15T10:58:07;5.20;99.90
25918;DHT22;13899;51.174;4.456;2024-01-15T11:00:34;5.30;99.90
25918;DHT22;13899;51.174;4.456;2024-01-15T11:03:01;5.10;99.90
25918;DHT22;13899;51.174;4.456;2024-01-15T11:05:27;5.00;99.90
25918;DHT22;13899;51.174;4.456;2024-01-15T11:07:58;5.10;99.90
25918;DHT22;13899;51.174;4.456;2024-01-15T11:10:52;5.10;99.90
25918;DHT22;13899;51.174;4.456;2024-01-15T11:15:59;5.20;99.90
25918;DHT22;13899;51.174;4.456;2024-01-15T11:18:27;5.00;99.90
25918;DHT22;13899;51.174;4.456;2024-01-15T11:26:34;5.60;99.90
25918;DHT22;13899;51.174;4.456;2024-01-15T11:29:03;7.30;99.90
25918;DHT22;13899;51.174;4.456;2024-01-15T11:34:08;7.30;99.90
25918;DHT22;13899;51.174;4.456;2024-01-15T11:37:07;6.80;99.90
25918;DHT22;13899;51.174;4.456;2024-01-15T11:42:01;4.70;99.90
25918;DHT22;13899;51.174;4.456;2024-01-15T11:44:27;4.70;99.90
25918;DHT22;13899;51.174;4.456;2024-01-15T11:46:59;4.70;99.90
25918;DHT22;13899;51.174;4.456;2024-01-15T11:50:02;4.20;99.90
25918;DHT22;13899;51.174;4.456;2024-01-15T11:52:37;3.60;99.90
25918;DHT22;13899;51.174;4.456;2024-01-15T11:57:51;3.50;99.90
25918;DHT22;13899;51.174;4.456;2024-01-15T12:00:18;3.70;99.90
25918;DHT22;13899;51.174;4.456;2024-01-15T12:02:45;4.00;99.90
25918;DHT22;13899;51.174;4.456;2024-01-15T12:05:12;4.60;99.90
25918;DHT22;13899;51.174;4.456;2024-01-15T12:07:39;4.80;99.90
25918;DHT22;13899;51.174;4.456;2024-01-15T12:10:12;4.80;99.90
25918;DHT22;13899;51.174;4.456;2024-01-15T12:12:54;4.20;99.90
25918;DHT22;13899;51.174;4.456;2024-01-15T12:15:22;4.40;99.90
25918;DHT22;13899;51.174;4.456;2024-01-15T12:17:49;4.40;99.90
25918;DHT22;13899;51.174;4.456;2024-01-15T12:20:15;4.40;99.90
25918;DHT22;13899;51.174;4.456;2024-01-15T12:22:41;4.40;99.90
25918;DHT22;13899;51.174;4.456;2024-01-15T12:25:07;4.20;99.90
25918;DHT22;13899;51.174;4.456;2024-01-15T12:27:33;3.90;99.90
25918;DHT22;13899;51.174;4.456;2024-01-15T12:29:59;3.60;99.90
25918;DHT22;13899;51.174;4.456;2024-01-15T12:32:25;3.70;99.90
25918;DHT22;13899;51.174;4.456;2024-01-15T12:34:50;3.60;99.90
25918;DHT22;13899;51.174;4.456;2024-01-15T12:37:19;3.60;99.90
25918;DHT22;13899;51.174;4.456;2024-01-15T12:39:45;3.40;99.90
25918;DHT22;13899;51.174;4.456;2024-01-15T12:42:11;3.30;99.90
25918;DHT22;13899;51.174;4.456;2024-01-15T12:44:37;3.00;99.90
25918;DHT22;13899;51.174;4.456;2024-01-15T12:47:06;3.10;99.90
25918;DHT22;13899;51.174;4.456;2024-01-15T12:49:32;3.20;99.90
25918;DHT22;13899;51.174;4.456;2024-01-15T12:51:58;3.60;99.90
25918;DHT22;13899;51.174;4.456;2024-01-15T12:54:24;3.60;99.90
25918;DHT22;13899;51.174;4.456;2024-01-15T12:56:51;3.50;99.90
25918;DHT22;13899;51.174;4.456;2024-01-15T12:59:17;3.10;99.90
25918;DHT22;13899;51.174;4.456;2024-01-15T13:01:43;3.10;99.90
25918;DHT22;13899;51.174;4.456;2024-01-15T13:04:09;3.20;99.90
25918;DHT22;13899;51.174;4.456;2024-01-15T13:06:35;3.40;99.90
25918;DHT22;13899;51.174;4.456;2024-01-15T13:09:04;3.30;99.90
25918;DHT22;13899;51.174;4.456;2024-01-15T13:11:35;3.20;99.90
25918;DHT22;13899;51.174;4.456;2024-01-15T13:14:01;3.20;99.90
25918;DHT22;13899;51.174;4.456;2024-01-15T13:16:27;3.30;99.90
25918;DHT22;13899;51.174;4.456;2024-01-15T13:18:54;3.40;99.90
25918;DHT22;13899;51.174;4.456;2024-01-15T13:21:20;3.10;99.90
25918;DHT22;13899;51.174;4.456;2024-01-15T13:23:46;3.00;99.90
25918;DHT22;13899;51.174;4.456;2024-01-15T13:26:11;3.20;99.90
25918;DHT22;13899;51.174;4.456;2024-01-15T13:28:37;3.30;99.90
25918;DHT22;13899;51.174;4.456;2024-01-15T13:31:03;3.20;99.90
25918;DHT22;13899;51.174;4.456;2024-01-15T13:33:30;3.20;99.90
25918;DHT22;13899;51.174;4.456;2024-01-15T13:35:55;2.90;99.90
25918;DHT22;13899;51.174;4.456;2024-01-15T13:38:21;3.00;99.90
25918;DHT22;13899;51.174;4.456;2024-01-15T13:40:47;3.00;99.90
25918;DHT22;13899;51.174;4.456;2024-01-15T13:43:13;3.30;99.90
25918;DHT22;13899;51.174;4.456;2024-01-15T13:45:43;3.70;99.90
25918;DHT22;13899;51.174;4.456;2024-01-15T13:48:08;4.10;99.90
25918;DHT22;13899;51.174;4.456;2024-01-15T13:50:35;4.10;99.90
25918;DHT22;13899;51.174;4.456;2024-01-15T13:53:03;4.00;99.90
25918;DHT22;13899;51.174;4.456;2024-01-15T13:55:30;4.20;99.90
25918;DHT22;13899;51.174;4.456;2024-01-15T13:57:55;4.00;99.90
25918;DHT22;13899;51.174;4.456;2024-01-15T14:00:21;4.20;99.90
25918;DHT22;13899;51.174;4.456;2024-01-15T14:02:48;3.80;99.90
25918;DHT22;13899;51.174;4.456;2024-01-15T14:05:14;4.00;99.90
25918;DHT22;13899;51.174;4.456;2024-01-15T14:07:40;4.00;99.90
25918;DHT22;13899;51.174;4.456;2024-01-15T14:10:06;3.60;99.90
25918;DHT22;13899;51.174;4.456;2024-01-15T14:12:33;3.60;99.90
25918;DHT22;13899;51.174;4.456;2024-01-15T14:15:00;3.50;99.90
25918;DHT22;13899;51.174;4.456;2024-01-15T14:17:27;3.80;99.90
25918;DHT22;13899;51.174;4.456;2024-01-15T14:19:52;4.40;99.90
25918;DHT22;13899;51.174;4.456;2024-01-15T14:22:18;5.10;99.90
25918;DHT22;13899;51.174;4.456;2024-01-15T14:24:44;4.90;99.90
25918;DHT22;13899;51.174;4.456;2024-01-15T14:27:10;5.00;99.90
25918;DHT22;13899;51.174;4.456;2024-01-15T14:29:36;4.70;99.90
25918;DHT22;13899;51.174;4.456;2024-01-15T14:32:02;4.70;99.90
25918;DHT22;13899;51.174;4.456;2024-01-15T14:34:27;4.90;99.90
25918;DHT22;13899;51.174;4.456;2024-01-15T14:36:53;4.60;99.90
25918;DHT22;13899;51.174;4.456;2024-01-15T14:39:21;4.80;99.90
25918;DHT22;13899;51.174;4.456;2024-01-15T14:41:46;5.00;99.90
25918;DHT22;13899;51.174;4.456;2024-01-15T14:44:12;5.20;99.90
25918;DHT22;13899;51.174;4.456;2024-01-15T14:46:38;5.30;99.90
25918;DHT22;13899;51.174;4.456;2024-01-15T14:49:04;5.70;99.90
25918;DHT22;13899;51.174;4.456;2024-01-15T14:51:30;4.90;99.90
25918;DHT22;13899;51.174;4.456;2024-01-15T14:53:56;4.30;99.90
25918;DHT22;13899;51.174;4.456;2024-01-15T14:56:21;4.00;99.90
25918;DHT22;13899;51.174;4.456;2024-01-15T14:58:47;3.90;99.90
25918;DHT22;13899;51.174;4.456;2024-01-15T15:01:13;4.30;99.90
25918;DHT22;13899;51.174;4.456;2024-01-15T15:03:39;4.90;99.90
25918;DHT22;13899;51.174;4.456;2024-01-15T15:06:05;4.30;99.90
25918;DHT22;13899;51.174;4.456;2024-01-15T15:08:33;3.90;99.90
25918;DHT22;13899;51.174;4.456;2024-01-15T15:10:59;4.00;99.90
25918;DHT22;13899;51.174;4.456;2024-01-15T15:13:25;3.70;99.90
25918;DHT22;13899;51.174;4.456;2024-01-15T15:15:51;3.60;99.90
25918;DHT22;13899;51.174;4.456;2024-01-15T15:18:19;3.70;99.90
25918;DHT22;13899;51.174;4.456;2024-01-15T15:20:45;3.90;99.90
25918;DHT22;13899;51.174;4.456;2024-01-15T15:23:11;3.90;99.90
25918;DHT22;13899;51.174;4.456;2024-01-15T15:25:37;3.80;99.90
25918;DHT22;13899;51.174;4.456;2024-01-15T15:28:03;3.80;99.90
25918;DHT22;13899;51.174;4.456;2024-01-15T15:30:33;4.00;99.90
25918;DHT22;13899;51.174;4.456;2024-01-15T15:32:59;4.10;99.90
25918;DHT22;13899;51.174;4.456;2024-01-15T15:35:25;4.20;99.90
25918;DHT22;13899;51.174;4.456;2024-01-15T15:37:50;4.10;99.90
25918;DHT22;13899;51.174;4.456;2024-01-15T15:40:16;4.00;99.90
25918;DHT22;13899;51.174;4.456;2024-01-15T15:42:42;4.20;99.90
25918;DHT22;13899;51.174;4.456;2024-01-15T15:45:08;4.20;99.90
25918;DHT22;13899;51.174;4.456;2024-01-15T15:47:35;4.20;99.90
25918;DHT22;13899;51.174;4.456;2024-01-15T15:50:01;4.10;99.90
25918;DHT22;13899;51.174;4.456;2024-01-15T15:52:27;4.00;99.90
25918;DHT22;13899;51.174;4.456;2024-01-15T15:54:53;4.00;99.90